sensor_id;sensor_type;location;lat;lon;timestamp;temperature;humidity
48208;DHT22;33997;53.278;9.708;2023-06-22T00:01:49;16.20;90.50
48208;DHT22;33997;53.278;9.708;2023-06-22T00:04:14;16.20;90.40
48208;DHT22;33997;53.278;9.708;2023-06-22T00:06:40;16.20;90.80
48208;DHT22;33997;53.278;9.708;2023-06-22T00:09:05;16.20;90.70
48208;DHT22;33997;53.278;9.708;2023-06-22T00:11:33;16.20;90.90
48208;DHT22;33997;53.278;9.708;2023-06-22T00:13:59;16.20;90.30
48208;DHT22;33997;53.278;9.708;2023-06-22T00:16:25;16.20;90.30
48208;DHT22;33997;53.278;9.708;2023-06-22T00:18:50;16.20;90.50
48208;DHT22;33997;53.278;9.708;2023-06-22T00:21:16;16.20;90.10
48208;DHT22;33997;53.278;9.708;2023-06-22T00:23:42;16.10;90.20
48208;DHT22;33997;53.278;9.708;2023-06-22T00:26:08;16.20;90.10
48208;DHT22;33997;53.278;9.708;2023-06-22T00:28:34;16.20;90.30
48208;DHT22;33997;53.278;9.708;2023-06-22T00:30:59;16.20;90.40
48208;DHT22;33997;53.278;9.708;2023-06-22T00:33:26;16.20;89.90
48208;DHT22;33997;53.278;9.708;2023-06-22T00:35:52;16.20;90.90
48208;DHT22;33997;53.278;9.708;2023-06-22T00:38:18;16.30;91.50
48208;DHT22;33997;53.278;9.708;2023-06-22T00:40:44;16.30;91.50
48208;DHT22;33997;53.278;9.708;2023-06-22T00:43:10;16.20;91.60
48208;DHT22;33997;53.278;9.708;2023-06-22T00:45:35;16.20;91.70
48208;DHT22;33997;53.278;9.708;2023-06-22T00:48:01;16.30;91.80
48208;DHT22;33997;53.278;9.708;2023-06-22T00:50:30;16.20;91.90
48208;DHT22;33997;53.278;9.708;2023-06-22T00:53:00;16.30;91.90
48208;DHT22;33997;53.278;9.708;2023-06-22T00:55:26;16.30;92.00
48208;DHT22;33997;53.278;9.708;2023-06-22T00:57:53;16.20;92.10
48208;DHT22;33997;53.278;9.708;2023-06-22T01:00:23;16.20;91.90
48208;DHT22;33997;53.278;9.708;2023-06-22T01:02:51;16.20;91.60
48208;DHT22;33997;53.278;9.708;2023-06-22T01:05:19;16.10;91.80
48208;DHT22;33997;53.278;9.708;2023-06-22T01:10:41;16.10;92.20
48208;DHT22;33997;53.278;9.708;2023-06-22T01:13:18;16.10;92.40
48208;DHT22;33997;53.278;9.708;2023-06-22T01:15:51;16.10;92.00
48208;DHT22;33997;53.278;9.708;2023-06-22T01:18:19;16.10;92.30
48208;DHT22;33997;53.278;9.708;2023-06-22T01:20:47;16.10;92.40
48208;DHT22;33997;53.278;9.708;2023-06-22T01:23:33;16.10;92.50
48208;DHT22;33997;53.278;9.708;2023-06-22T01:26:34;16.10;92.50
48208;DHT22;33997;53.278;9.708;2023-06-22T01:29:04;16.10;92.50
48208;DHT22;33997;53.278;9.708;2023-06-22T01:31:31;16.10;92.30
48208;DHT22;33997;53.278;9.708;2023-06-22T01:34:00;16.00;92.40
48208;DHT22;33997;53.278;9.708;2023-06-22T01:36:26;16.00;92.50
48208;DHT22;33997;53.278;9.708;2023-06-22T01:38:53;16.00;92.50
48208;DHT22;33997;53.278;9.708;2023-06-22T01:41:19;16.00;92.30
48208;DHT22;33997;53.278;9.708;2023-06-22T01:43:46;16.00;92.50
48208;DHT22;33997;53.278;9.708;2023-06-22T01:46:12;16.00;92.70
48208;DHT22;33997;53.278;9.708;2023-06-22T01:48:38;16.00;92.70
48208;DHT22;33997;53.278;9.708;2023-06-22T01:51:04;16.00;92.80
48208;DHT22;33997;53.278;9.708;2023-06-22T01:53:30;16.00;92.90
48208;DHT22;33997;53.278;9.708;2023-06-22T01:55:56;16.00;92.70
48208;DHT22;33997;53.278;9.708;2023-06-22T01:58:25;16.00;93.10
48208;DHT22;33997;53.278;9.708;2023-06-22T02:01:00;16.00;92.80
48208;DHT22;33997;53.278;9.708;2023-06-22T02:03:35;16.00;92.80
48208;DHT22;33997;53.278;9.708;2023-06-22T02:06:05;16.00;93.10
48208;DHT22;33997;53.278;9.708;2023-06-22T02:08:40;16.00;93.20
48208;DHT22;33997;53.278;9.708;2023-06-22T02:11:08;15.80;92.80
48208;DHT22;33997;53.278;9.708;2023-06-22T02:13:36;15.80;92.60
48208;DHT22;33997;53.278;9.708;2023-06-22T02:16:02;15.80;92.70
48208;DHT22;33997;53.278;9.708;2023-06-22T02:18:28;15.70;92.80
48208;DHT22;33997;53.278;9.708;2023-06-22T02:20:54;15.70;93.00
48208;DHT22;33997;53.278;9.708;2023-06-22T02:23:19;15.60;93.20
48208;DHT22;33997;53.278;9.708;2023-06-22T02:25:45;15.60;92.80
48208;DHT22;33997;53.278;9.708;2023-06-22T02:28:10;15.50;92.70
48208;DHT22;33997;53.278;9.708;2023-06-22T02:30:36;15.50;92.60
48208;DHT22;33997;53.278;9.708;2023-06-22T02:33:01;15.50;92.70
48208;DHT22;33997;53.278;9.708;2023-06-22T02:35:27;15.40;93.00
48208;DHT22;33997;53.278;9.708;2023-06-22T02:37:57;15.40;93.20
48208;DHT22;33997;53.278;9.708;2023-06-22T02:40:23;15.40;93.40
48208;DHT22;33997;53.278;9.708;2023-06-22T02:42:48;15.30;93.10
48208;DHT22;33997;53.278;9.708;2023-06-22T02:45:14;15.30;93.10
48208;DHT22;33997;53.278;9.708;2023-06-22T02:47:39;15.30;93.00
48208;DHT22;33997;53.278;9.708;2023-06-22T02:50:05;15.30;93.20
48208;DHT22;33997;53.278;9.708;2023-06-22T02:52:31;15.30;93.20
48208;DHT22;33997;53.278;9.708;2023-06-22T02:54:56;15.30;93.30
48208;DHT22;33997;53.278;9.708;2023-06-22T02:57:22;15.30;93.30
48208;DHT22;33997;53.278;9.708;2023-06-22T02:59:47;15.20;93.20
48208;DHT22;33997;53.278;9.708;2023-06-22T03:02:12;15.20;93.00
48208;DHT22;33997;53.278;9.708;2023-06-22T03:04:38;15.20;93.20
48208;DHT22;33997;53.278;9.708;2023-06-22T03:07:04;15.20;93.60
48208;DHT22;33997;53.278;9.708;2023-06-22T03:09:29;15.20;93.60
48208;DHT22;33997;53.278;9.708;2023-06-22T03:11:55;15.20;93.30
48208;DHT22;33997;53.278;9.708;2023-06-22T03:14:21;15.10;93.10
48208;DHT22;33997;53.278;9.708;2023-06-22T03:16:46;15.20;93.20
48208;DHT22;33997;53.278;9.708;2023-06-22T03:19:12;15.20;93.10
48208;DHT22;33997;53.278;9.708;2023-06-22T03:21:38;15.30;93.20
48208;DHT22;33997;53.278;9.708;2023-06-22T03:24:04;15.30;93.20
48208;DHT22;33997;53.278;9.708;2023-06-22T03:26:30;15.30;92.90
48208;DHT22;33997;53.278;9.708;2023-06-22T03:28:56;15.40;92.90
48208;DHT22;33997;53.278;9.708;2023-06-22T03:31:22;15.40;93.10
48208;DHT22;33997;53.278;9.708;2023-06-22T03:33:49;15.40;93.00
48208;DHT22;33997;53.278;9.708;2023-06-22T03:36:15;15.50;92.80
48208;DHT22;33997;53.278;9.708;2023-06-22T03:38:48;15.50;92.60
48208;DHT22;33997;53.278;9.708;2023-06-22T03:41:14;15.60;92.60
48208;DHT22;33997;53.278;9.708;2023-06-22T03:43:40;15.70;92.50
48208;DHT22;33997;53.278;9.708;2023-06-22T03:46:06;15.80;92.70
48208;DHT22;33997;53.278;9.708;2023-06-22T03:48:31;15.80;93.00
48208;DHT22;33997;53.278;9.708;2023-06-22T03:50:58;15.90;92.60
48208;DHT22;33997;53.278;9.708;2023-06-22T03:53:24;16.00;92.70
48208;DHT22;33997;53.278;9.708;2023-06-22T03:55:51;16.10;92.70
48208;DHT22;33997;53.278;9.708;2023-06-22T03:58:18;16.20;92.50
48208;DHT22;33997;53.278;9.708;2023-06-22T04:00:48;16.30;92.10
48208;DHT22;33997;53.278;9.708;2023-06-22T04:03:14;16.40;91.80
48208;DHT22;33997;53.278;9.708;2023-06-22T04:05:40;16.50;91.20
48208;DHT22;33997;53.278;9.708;2023-06-22T04:08:05;16.60;91.30
48208;DHT22;33997;53.278;9.708;2023-06-22T04:10:31;16.60;91.00
48208;DHT22;33997;53.278;9.708;2023-06-22T04:12:56;16.80;91.10
48208;DHT22;33997;53.278;9.708;2023-06-22T04:15:22;16.80;91.30
48208;DHT22;33997;53.278;9.708;2023-06-22T04:17:47;16.90;91.50
48208;DHT22;33997;53.278;9.708;2023-06-22T04:20:13;17.00;91.50
48208;DHT22;33997;53.278;9.708;2023-06-22T04:22:38;17.00;90.60
48208;DHT22;33997;53.278;9.708;2023-06-22T04:25:05;17.10;90.70
48208;DHT22;33997;53.278;9.708;2023-06-22T04:27:33;17.10;90.60
48208;DHT22;33997;53.278;9.708;2023-06-22T04:30:03;17.10;90.80
48208;DHT22;33997;53.278;9.708;2023-06-22T04:32:28;17.20;90.40
48208;DHT22;33997;53.278;9.708;2023-06-22T04:34:54;17.30;90.10
48208;DHT22;33997;53.278;9.708;2023-06-22T04:37:19;17.30;90.00
48208;DHT22;33997;53.278;9.708;2023-06-22T04:39:49;17.40;89.50
48208;DHT22;33997;53.278;9.708;2023-06-22T04:42:14;17.50;89.40
48208;DHT22;33997;53.278;9.708;2023-06-22T04:44:40;17.60;89.70
48208;DHT22;33997;53.278;9.708;2023-06-22T04:47:07;17.70;89.40
48208;DHT22;33997;53.278;9.708;2023-06-22T04:49:34;17.70;89.40
48208;DHT22;33997;53.278;9.708;2023-06-22T04:52:03;17.80;89.50
48208;DHT22;33997;53.278;9.708;2023-06-22T04:54:29;17.90;89.20
48208;DHT22;33997;53.278;9.708;2023-06-22T04:56:54;18.00;88.60
48208;DHT22;33997;53.278;9.708;2023-06-22T04:59:27;18.00;88.70
48208;DHT22;33997;53.278;9.708;2023-06-22T05:02:00;18.10;88.40
48208;DHT22;33997;53.278;9.708;2023-06-22T05:04:26;18.20;88.40
48208;DHT22;33997;53.278;9.708;2023-06-22T05:06:54;18.20;88.30
48208;DHT22;33997;53.278;9.708;2023-06-22T05:09:20;18.30;88.00
48208;DHT22;33997;53.278;9.708;2023-06-22T05:11:46;18.30;87.60
48208;DHT22;33997;53.278;9.708;2023-06-22T05:14:11;18.30;87.90
48208;DHT22;33997;53.278;9.708;2023-06-22T05:16:37;18.40;87.80
48208;DHT22;33997;53.278;9.708;2023-06-22T05:19:03;18.40;87.80
48208;DHT22;33997;53.278;9.708;2023-06-22T05:21:30;18.50;87.30
48208;DHT22;33997;53.278;9.708;2023-06-22T05:23:56;18.50;86.70
48208;DHT22;33997;53.278;9.708;2023-06-22T05:26:26;18.60;86.70
48208;DHT22;33997;53.278;9.708;2023-06-22T05:28:52;18.80;87.20
48208;DHT22;33997;53.278;9.708;2023-06-22T05:31:18;18.90;85.70
48208;DHT22;33997;53.278;9.708;2023-06-22T05:33:48;19.00;86.20
48208;DHT22;33997;53.278;9.708;2023-06-22T05:36:14;19.20;85.10
48208;DHT22;33997;53.278;9.708;2023-06-22T05:38:40;19.30;84.40
48208;DHT22;33997;53.278;9.708;2023-06-22T05:41:06;19.50;84.50
48208;DHT22;33997;53.278;9.708;2023-06-22T05:43:32;19.50;84.30
48208;DHT22;33997;53.278;9.708;2023-06-22T05:46:00;19.50;83.60
48208;DHT22;33997;53.278;9.708;2023-06-22T05:48:26;19.60;83.70
48208;DHT22;33997;53.278;9.708;2023-06-22T05:50:53;19.70;83.30
48208;DHT22;33997;53.278;9.708;2023-06-22T05:53:18;19.90;83.40
48208;DHT22;33997;53.278;9.708;2023-06-22T05:55:44;20.00;83.10
48208;DHT22;33997;53.278;9.708;2023-06-22T05:58:10;20.00;82.90
48208;DHT22;33997;53.278;9.708;2023-06-22T06:00:35;20.10;81.90
48208;DHT22;33997;53.278;9.708;2023-06-22T06:03:01;20.10;81.90
48208;DHT22;33997;53.278;9.708;2023-06-22T06:05:30;20.20;81.10
48208;DHT22;33997;53.278;9.708;2023-06-22T06:07:56;20.30;82.40
48208;DHT22;33997;53.278;9.708;2023-06-22T06:10:22;20.50;81.70
48208;DHT22;33997;53.278;9.708;2023-06-22T06:12:48;20.50;80.70
48208;DHT22;33997;53.278;9.708;2023-06-22T06:15:13;20.50;80.80
48208;DHT22;33997;53.278;9.708;2023-06-22T06:17:48;20.50;80.30
48208;DHT22;33997;53.278;9.708;2023-06-22T06:20:15;20.60;79.50
48208;DHT22;33997;53.278;9.708;2023-06-22T06:22:41;20.80;80.40
48208;DHT22;33997;53.278;9.708;2023-06-22T06:25:08;20.90;79.80
48208;DHT22;33997;53.278;9.708;2023-06-22T06:27:33;21.00;80.30
48208;DHT22;33997;53.278;9.708;2023-06-22T06:29:59;21.10;79.70
48208;DHT22;33997;53.278;9.708;2023-06-22T06:32:24;21.30;78.80
48208;DHT22;33997;53.278;9.708;2023-06-22T06:34:50;21.40;79.40
48208;DHT22;33997;53.278;9.708;2023-06-22T06:37:16;21.60;79.70
48208;DHT22;33997;53.278;9.708;2023-06-22T06:39:42;22.00;77.10
48208;DHT22;33997;53.278;9.708;2023-06-22T06:42:08;22.10;77.50
48208;DHT22;33997;53.278;9.708;2023-06-22T06:44:33;22.50;75.00
48208;DHT22;33997;53.278;9.708;2023-06-22T06:46:58;22.70;75.80
48208;DHT22;33997;53.278;9.708;2023-06-22T06:49:25;23.00;72.80
48208;DHT22;33997;53.278;9.708;2023-06-22T06:51:50;23.20;73.00
48208;DHT22;33997;53.278;9.708;2023-06-22T06:54:15;23.30;69.50
48208;DHT22;33997;53.278;9.708;2023-06-22T06:56:41;23.50;71.10
48208;DHT22;33997;53.278;9.708;2023-06-22T06:59:10;23.50;68.90
48208;DHT22;33997;53.278;9.708;2023-06-22T07:01:35;23.30;67.50
48208;DHT22;33997;53.278;9.708;2023-06-22T07:04:01;23.30;67.10
48208;DHT22;33997;53.278;9.708;2023-06-22T07:06:26;23.10;66.20
48208;DHT22;33997;53.278;9.708;2023-06-22T07:08:55;23.00;68.20
48208;DHT22;33997;53.278;9.708;2023-06-22T07:11:20;23.00;67.80
48208;DHT22;33997;53.278;9.708;2023-06-22T07:13:46;23.00;68.10
48208;DHT22;33997;53.278;9.708;2023-06-22T07:16:11;23.20;66.60
48208;DHT22;33997;53.278;9.708;2023-06-22T07:18:39;23.10;66.70
48208;DHT22;33997;53.278;9.708;2023-06-22T07:21:05;23.40;68.50
48208;DHT22;33997;53.278;9.708;2023-06-22T07:23:32;23.50;70.10
48208;DHT22;33997;53.278;9.708;2023-06-22T07:25:57;23.60;69.00
48208;DHT22;33997;53.278;9.708;2023-06-22T07:28:23;24.00;66.50
48208;DHT22;33997;53.278;9.708;2023-06-22T07:30:48;23.90;66.80
48208;DHT22;33997;53.278;9.708;2023-06-22T07:33:14;23.70;66.20
48208;DHT22;33997;53.278;9.708;2023-06-22T07:35:39;23.60;65.40
48208;DHT22;33997;53.278;9.708;2023-06-22T07:38:05;23.50;65.80
48208;DHT22;33997;53.278;9.708;2023-06-22T07:40:30;23.50;63.80
48208;DHT22;33997;53.278;9.708;2023-06-22T07:42:56;23.80;65.20
48208;DHT22;33997;53.278;9.708;2023-06-22T07:45:21;24.20;65.20
48208;DHT22;33997;53.278;9.708;2023-06-22T07:47:47;24.80;62.90
48208;DHT22;33997;53.278;9.708;2023-06-22T07:50:12;24.90;64.50
48208;DHT22;33997;53.278;9.708;2023-06-22T07:52:38;25.00;61.90
48208;DHT22;33997;53.278;9.708;2023-06-22T07:55:04;24.90;61.60
48208;DHT22;33997;53.278;9.708;2023-06-22T07:57:30;25.20;62.20
48208;DHT22;33997;53.278;9.708;2023-06-22T08:00:00;25.50;63.60
48208;DHT22;33997;53.278;9.708;2023-06-22T08:02:26;25.40;61.60
48208;DHT22;33997;53.278;9.708;2023-06-22T08:04:51;25.40;61.50
48208;DHT22;33997;53.278;9.708;2023-06-22T08:07:17;25.70;61.00
48208;DHT22;33997;53.278;9.708;2023-06-22T08:09:47;25.50;60.80
48208;DHT22;33997;53.278;9.708;2023-06-22T08:12:13;26.00;60.50
48208;DHT22;33997;53.278;9.708;2023-06-22T08:14:42;26.40;60.60
48208;DHT22;33997;53.278;9.708;2023-06-22T08:17:08;26.20;58.20
48208;DHT22;33997;53.278;9.708;2023-06-22T08:19:34;26.30;57.70
48208;DHT22;33997;53.278;9.708;2023-06-22T08:21:59;26.30;58.20
48208;DHT22;33997;53.278;9.708;2023-06-22T08:24:25;26.00;57.60
48208;DHT22;33997;53.278;9.708;2023-06-22T08:26:51;25.70;55.00
48208;DHT22;33997;53.278;9.708;2023-06-22T08:29:17;25.70;60.20
48208;DHT22;33997;53.278;9.708;2023-06-22T08:31:43;25.90;60.40
48208;DHT22;33997;53.278;9.708;2023-06-22T08:34:08;26.20;57.90
48208;DHT22;33997;53.278;9.708;2023-06-22T08:36:34;26.50;60.40
48208;DHT22;33997;53.278;9.708;2023-06-22T08:39:03;26.70;55.60
48208;DHT22;33997;53.278;9.708;2023-06-22T08:41:29;26.60;57.70
48208;DHT22;33997;53.278;9.708;2023-06-22T08:43:54;26.90;57.00
48208;DHT22;33997;53.278;9.708;2023-06-22T08:46:20;27.00;54.70
48208;DHT22;33997;53.278;9.708;2023-06-22T08:48:48;27.30;58.60
48208;DHT22;33997;53.278;9.708;2023-06-22T08:51:14;27.00;56.20
48208;DHT22;33997;53.278;9.708;2023-06-22T08:53:39;27.70;56.70
48208;DHT22;33997;53.278;9.708;2023-06-22T08:56:05;28.00;54.60
48208;DHT22;33997;53.278;9.708;2023-06-22T08:58:30;28.00;55.90
48208;DHT22;33997;53.278;9.708;2023-06-22T09:00:56;27.50;52.10
48208;DHT22;33997;53.278;9.708;2023-06-22T09:03:21;28.00;54.40
48208;DHT22;33997;53.278;9.708;2023-06-22T09:05:51;27.90;52.60
48208;DHT22;33997;53.278;9.708;2023-06-22T09:08:17;27.60;54.30
48208;DHT22;33997;53.278;9.708;2023-06-22T09:10:42;27.50;51.40
48208;DHT22;33997;53.278;9.708;2023-06-22T09:13:08;27.50;53.40
48208;DHT22;33997;53.278;9.708;2023-06-22T09:15:33;27.50;53.30
48208;DHT22;33997;53.278;9.708;2023-06-22T09:17:59;27.80;54.20
48208;DHT22;33997;53.278;9.708;2023-06-22T09:20:25;28.00;54.40
48208;DHT22;33997;53.278;9.708;2023-06-22T09:22:51;28.00;52.60
48208;DHT22;33997;53.278;9.708;2023-06-22T09:25:16;27.80;52.70
48208;DHT22;33997;53.278;9.708;2023-06-22T09:27:42;28.10;56.20
48208;DHT22;33997;53.278;9.708;2023-06-22T09:30:08;28.00;52.10
48208;DHT22;33997;53.278;9.708;2023-06-22T09:32:33;28.50;53.00
48208;DHT22;33997;53.278;9.708;2023-06-22T09:35:01;28.50;53.80
48208;DHT22;33997;53.278;9.708;2023-06-22T09:37:27;28.90;53.50
48208;DHT22;33997;53.278;9.708;2023-06-22T09:39:52;28.90;52.80
48208;DHT22;33997;53.278;9.708;2023-06-22T09:42:18;28.30;51.70
48208;DHT22;33997;53.278;9.708;2023-06-22T09:44:43;28.50;51.40
48208;DHT22;33997;53.278;9.708;2023-06-22T09:47:09;28.50;52.30
48208;DHT22;33997;53.278;9.708;2023-06-22T09:49:34;28.00;51.80
48208;DHT22;33997;53.278;9.708;2023-06-22T09:52:00;28.40;52.70
48208;DHT22;33997;53.278;9.708;2023-06-22T09:54:25;28.50;52.10
48208;DHT22;33997;53.278;9.708;2023-06-22T09:56:51;28.00;52.60
48208;DHT22;33997;53.278;9.708;2023-06-22T09:59:16;27.20;54.50
48208;DHT22;33997;53.278;9.708;2023-06-22T10:01:42;27.80;55.30
48208;DHT22;33997;53.278;9.708;2023-06-22T10:04:07;28.10;54.10
48208;DHT22;33997;53.278;9.708;2023-06-22T10:06:33;28.10;50.30
48208;DHT22;33997;53.278;9.708;2023-06-22T10:08:58;28.50;52.90
48208;DHT22;33997;53.278;9.708;2023-06-22T10:11:24;29.20;51.50
48208;DHT22;33997;53.278;9.708;2023-06-22T10:13:54;29.10;51.70
48208;DHT22;33997;53.278;9.708;2023-06-22T10:16:20;29.00;51.00
48208;DHT22;33997;53.278;9.708;2023-06-22T10:18:45;28.90;51.10
48208;DHT22;33997;53.278;9.708;2023-06-22T10:21:11;29.40;52.80
48208;DHT22;33997;53.278;9.708;2023-06-22T10:23:36;28.90;49.80
48208;DHT22;33997;53.278;9.708;2023-06-22T10:26:02;29.40;51.50
48208;DHT22;33997;53.278;9.708;2023-06-22T10:28:27;29.30;48.80
48208;DHT22;33997;53.278;9.708;2023-06-22T10:30:53;29.20;52.30
48208;DHT22;33997;53.278;9.708;2023-06-22T10:33:18;29.40;51.10
48208;DHT22;33997;53.278;9.708;2023-06-22T10:35:44;29.90;49.90
48208;DHT22;33997;53.278;9.708;2023-06-22T10:38:09;30.40;49.70
48208;DHT22;33997;53.278;9.708;2023-06-22T10:40:35;29.50;48.70
48208;DHT22;33997;53.278;9.708;2023-06-22T10:43:00;30.40;51.40
48208;DHT22;33997;53.278;9.708;2023-06-22T10:45:26;30.70;48.50
48208;DHT22;33997;53.278;9.708;2023-06-22T10:47:52;31.00;48.10
48208;DHT22;33997;53.278;9.708;2023-06-22T10:50:18;30.90;49.90
48208;DHT22;33997;53.278;9.708;2023-06-22T10:52:43;30.40;49.90
48208;DHT22;33997;53.278;9.708;2023-06-22T10:55:09;30.70;49.60
48208;DHT22;33997;53.278;9.708;2023-06-22T10:57:35;30.50;50.40
48208;DHT22;33997;53.278;9.708;2023-06-22T11:00:02;30.50;47.80
48208;DHT22;33997;53.278;9.708;2023-06-22T11:02:30;31.00;51.00
48208;DHT22;33997;53.278;9.708;2023-06-22T11:04:56;31.00;47.60
48208;DHT22;33997;53.278;9.708;2023-06-22T11:07:21;31.50;50.70
48208;DHT22;33997;53.278;9.708;2023-06-22T11:09:47;31.30;47.10
48208;DHT22;33997;53.278;9.708;2023-06-22T11:12:12;30.80;47.00
48208;DHT22;33997;53.278;9.708;2023-06-22T11:14:39;31.20;47.30
48208;DHT22;33997;53.278;9.708;2023-06-22T11:17:04;31.30;47.80
48208;DHT22;33997;53.278;9.708;2023-06-22T11:19:30;31.40;48.80
48208;DHT22;33997;53.278;9.708;2023-06-22T11:21:55;31.30;47.20
48208;DHT22;33997;53.278;9.708;2023-06-22T11:24:21;31.30;46.10
48208;DHT22;33997;53.278;9.708;2023-06-22T11:26:47;32.20;46.20
48208;DHT22;33997;53.278;9.708;2023-06-22T11:29:12;32.90;46.70
48208;DHT22;33997;53.278;9.708;2023-06-22T11:31:38;33.40;42.30
48208;DHT22;33997;53.278;9.708;2023-06-22T11:34:03;34.40;44.20
48208;DHT22;33997;53.278;9.708;2023-06-22T11:36:29;34.90;43.30
48208;DHT22;33997;53.278;9.708;2023-06-22T11:38:58;34.50;43.10
48208;DHT22;33997;53.278;9.708;2023-06-22T11:41:23;33.50;43.90
48208;DHT22;33997;53.278;9.708;2023-06-22T11:43:49;33.10;44.30
48208;DHT22;33997;53.278;9.708;2023-06-22T11:46:14;32.70;45.50
48208;DHT22;33997;53.278;9.708;2023-06-22T11:48:40;32.30;44.60
48208;DHT22;33997;53.278;9.708;2023-06-22T11:51:05;32.00;47.00
48208;DHT22;33997;53.278;9.708;2023-06-22T11:53:31;31.50;48.50
48208;DHT22;33997;53.278;9.708;2023-06-22T11:55:57;31.50;48.60
48208;DHT22;33997;53.278;9.708;2023-06-22T11:58:22;30.90;45.80
48208;DHT22;33997;53.278;9.708;2023-06-22T12:00:48;31.00;48.10
48208;DHT22;33997;53.278;9.708;2023-06-22T12:03:14;30.40;49.70
48208;DHT22;33997;53.278;9.708;2023-06-22T12:05:42;30.30;50.10
48208;DHT22;33997;53.278;9.708;2023-06-22T12:08:08;30.20;51.70
48208;DHT22;33997;53.278;9.708;2023-06-22T12:10:34;30.00;49.20
48208;DHT22;33997;53.278;9.708;2023-06-22T12:12:59;30.30;49.10
48208;DHT22;33997;53.278;9.708;2023-06-22T12:15:26;30.70;50.40
48208;DHT22;33997;53.278;9.708;2023-06-22T12:17:52;31.00;48.60
48208;DHT22;33997;53.278;9.708;2023-06-22T12:20:17;31.30;51.50
48208;DHT22;33997;53.278;9.708;2023-06-22T12:22:43;30.50;46.10
48208;DHT22;33997;53.278;9.708;2023-06-22T12:25:09;30.80;50.00
48208;DHT22;33997;53.278;9.708;2023-06-22T12:27:35;30.50;47.50
48208;DHT22;33997;53.278;9.708;2023-06-22T12:30:01;30.10;48.70
48208;DHT22;33997;53.278;9.708;2023-06-22T12:32:26;29.70;48.30
48208;DHT22;33997;53.278;9.708;2023-06-22T12:34:52;29.60;52.60
48208;DHT22;33997;53.278;9.708;2023-06-22T12:37:18;29.20;49.70
48208;DHT22;33997;53.278;9.708;2023-06-22T12:39:43;29.10;52.20
48208;DHT22;33997;53.278;9.708;2023-06-22T12:42:09;29.30;52.90
48208;DHT22;33997;53.278;9.708;2023-06-22T12:44:38;28.90;53.80
48208;DHT22;33997;53.278;9.708;2023-06-22T12:47:04;28.70;54.20
48208;DHT22;33997;53.278;9.708;2023-06-22T12:49:29;28.60;54.40
48208;DHT22;33997;53.278;9.708;2023-06-22T12:51:55;28.30;54.60
48208;DHT22;33997;53.278;9.708;2023-06-22T12:54:20;28.10;55.00
48208;DHT22;33997;53.278;9.708;2023-06-22T12:56:46;28.00;54.70
48208;DHT22;33997;53.278;9.708;2023-06-22T12:59:12;28.00;56.30
48208;DHT22;33997;53.278;9.708;2023-06-22T13:01:37;28.00;55.80
48208;DHT22;33997;53.278;9.708;2023-06-22T13:04:03;28.00;56.70
48208;DHT22;33997;53.278;9.708;2023-06-22T13:06:29;28.00;56.60
48208;DHT22;33997;53.278;9.708;2023-06-22T13:08:54;28.10;57.10
48208;DHT22;33997;53.278;9.708;2023-06-22T13:11:20;28.20;57.10
48208;DHT22;33997;53.278;9.708;2023-06-22T13:13:46;28.50;55.50
48208;DHT22;33997;53.278;9.708;2023-06-22T13:16:12;28.30;57.10
48208;DHT22;33997;53.278;9.708;2023-06-22T13:18:37;28.20;56.00
48208;DHT22;33997;53.278;9.708;2023-06-22T13:21:04;28.30;57.00
48208;DHT22;33997;53.278;9.708;2023-06-22T13:23:29;28.00;58.20
48208;DHT22;33997;53.278;9.708;2023-06-22T13:25:55;27.90;57.00
48208;DHT22;33997;53.278;9.708;2023-06-22T13:28:20;27.40;56.80
48208;DHT22;33997;53.278;9.708;2023-06-22T13:30:46;27.30;58.90
48208;DHT22;33997;53.278;9.708;2023-06-22T13:33:13;27.00;57.90
48208;DHT22;33997;53.278;9.708;2023-06-22T13:35:38;27.00;60.20
48208;DHT22;33997;53.278;9.708;2023-06-22T13:38:04;26.90;61.70
48208;DHT22;33997;53.278;9.708;2023-06-22T13:40:30;26.70;61.20
48208;DHT22;33997;53.278;9.708;2023-06-22T13:42:56;26.60;64.90
48208;DHT22;33997;53.278;9.708;2023-06-22T13:45:22;26.50;64.80
48208;DHT22;33997;53.278;9.708;2023-06-22T13:47:47;26.70;64.40
48208;DHT22;33997;53.278;9.708;2023-06-22T13:50:13;26.70;64.60
48208;DHT22;33997;53.278;9.708;2023-06-22T13:52:39;26.90;64.80
48208;DHT22;33997;53.278;9.708;2023-06-22T13:55:05;26.80;62.70
48208;DHT22;33997;53.278;9.708;2023-06-22T13:57:32;27.00;63.10
48208;DHT22;33997;53.278;9.708;2023-06-22T13:59:58;27.40;62.00
48208;DHT22;33997;53.278;9.708;2023-06-22T14:02:23;27.40;59.90
48208;DHT22;33997;53.278;9.708;2023-06-22T14:04:49;27.30;57.70
48208;DHT22;33997;53.278;9.708;2023-06-22T14:07:14;27.50;60.70
48208;DHT22;33997;53.278;9.708;2023-06-22T14:09:40;27.50;61.40
48208;DHT22;33997;53.278;9.708;2023-06-22T14:12:09;27.40;60.50
48208;DHT22;33997;53.278;9.708;2023-06-22T14:14:35;27.30;59.20
48208;DHT22;33997;53.278;9.708;2023-06-22T14:17:00;27.20;60.40
48208;DHT22;33997;53.278;9.708;2023-06-22T14:19:26;27.40;58.30
48208;DHT22;33997;53.278;9.708;2023-06-22T14:21:51;27.60;61.00
48208;DHT22;33997;53.278;9.708;2023-06-22T14:24:17;27.60;61.30
48208;DHT22;33997;53.278;9.708;2023-06-22T14:26:42;27.90;60.60
48208;DHT22;33997;53.278;9.708;2023-06-22T14:29:08;28.00;61.60
48208;DHT22;33997;53.278;9.708;2023-06-22T14:31:34;28.00;60.10
48208;DHT22;33997;53.278;9.708;2023-06-22T14:34:00;27.90;60.90
48208;DHT22;33997;53.278;9.708;2023-06-22T14:36:25;28.00;59.10
48208;DHT22;33997;53.278;9.708;2023-06-22T14:38:51;27.90;59.70
48208;DHT22;33997;53.278;9.708;2023-06-22T14:41:16;28.00;60.30
48208;DHT22;33997;53.278;9.708;2023-06-22T14:43:47;28.00;61.20
48208;DHT22;33997;53.278;9.708;2023-06-22T14:46:14;27.60;62.90
48208;DHT22;33997;53.278;9.708;2023-06-22T14:48:39;27.70;62.40
48208;DHT22;33997;53.278;9.708;2023-06-22T14:51:05;27.60;63.30
48208;DHT22;33997;53.278;9.708;2023-06-22T14:53:30;27.30;60.30
48208;DHT22;33997;53.278;9.708;2023-06-22T14:55:56;27.30;62.80
48208;DHT22;33997;53.278;9.708;2023-06-22T14:58:21;27.00;62.00
48208;DHT22;33997;53.278;9.708;2023-06-22T15:00:47;26.90;62.10
48208;DHT22;33997;53.278;9.708;2023-06-22T15:03:12;26.80;61.80
48208;DHT22;33997;53.278;9.708;2023-06-22T15:05:43;26.60;62.30
48208;DHT22;33997;53.278;9.708;2023-06-22T15:08:08;26.70;63.00
48208;DHT22;33997;53.278;9.708;2023-06-22T15:10:34;26.60;64.30
48208;DHT22;33997;53.278;9.708;2023-06-22T15:13:00;26.50;65.20
48208;DHT22;33997;53.278;9.708;2023-06-22T15:15:25;26.30;65.90
48208;DHT22;33997;53.278;9.708;2023-06-22T15:17:50;26.30;66.00
48208;DHT22;33997;53.278;9.708;2023-06-22T15:20:16;26.10;64.70
48208;DHT22;33997;53.278;9.708;2023-06-22T15:22:41;26.10;65.70
48208;DHT22;33997;53.278;9.708;2023-06-22T15:25:07;26.00;65.80
48208;DHT22;33997;53.278;9.708;2023-06-22T15:27:32;25.90;66.90